Time;durP1;ratioP1;P1;durP2;ratioP2;P2;SDS_P1;SDS_P2;PMS_P1;PMS_P2;Temp;Humidity;BMP_temperature;BMP_pressure;BME280_temperature;BME280_humidity;BME280_pressure;Samples;Min_cycle;Max_cycle;Signal;HPM_P1;HPM_P2
2022/09/28 00:01:07;;;;;;;2.60;2.40;;;;;;;5.06;100.00;95558.31;5023036;28;20405;-60
2022/09/28 00:03:35;;;;;;;2.67;2.53;;;;;;;5.07;100.00;95560.78;4973637;28;20219;-60
2022/09/28 00:06:04;;;;;;;2.30;2.10;;;;;;;5.07;100.00;95549.44;5025003;28;20345;-63
2022/09/28 00:08:33;;;;;;;3.50;2.30;;;;;;;5.09;100.00;95542.19;5010509;28;20227;-61
2022/09/28 00:11:02;;;;;;;2.27;2.13;;;;;;;5.11;100.00;95555.94;5004514;28;20374;-63
2022/09/28 00:13:31;;;;;;;2.30;2.10;;;;;;;5.08;100.00;95548.44;5026708;28;20203;-55
2022/09/28 00:16:02;;;;;;;2.03;1.93;;;;;;;5.12;100.00;95539.22;5025604;28;21103;-61
2022/09/28 00:18:31;;;;;;;2.53;2.20;;;;;;;5.19;100.00;95534.00;4974995;28;20596;-59
2022/09/28 00:21:13;;;;;;;1.93;1.83;;;;;;;5.20;100.00;95533.81;4993195;28;20320;-59
2022/09/28 00:26:24;;;;;;;2.10;1.90;;;;;;;5.14;100.00;95518.00;5000315;28;20606;-59
2022/09/28 00:28:53;;;;;;;2.10;2.00;;;;;;;5.15;100.00;95514.38;5021279;28;20303;-58
2022/09/28 00:31:23;;;;;;;2.30;2.10;;;;;;;5.17;100.00;95500.06;5018866;28;20279;-58
2022/09/28 00:33:54;;;;;;;3.07;1.90;;;;;;;5.15;100.00;95494.19;4970819;28;20227;-61
2022/09/28 00:36:22;;;;;;;2.07;1.97;;;;;;;5.19;100.00;95491.97;5022371;28;20230;-61
2022/09/28 00:38:51;;;;;;;1.80;1.70;;;;;;;5.18;100.00;95498.25;5027160;28;20199;-64
2022/09/28 00:41:19;;;;;;;1.80;1.70;;;;;;;5.22;100.00;95504.72;4971702;28;20292;-64
2022/09/28 00:43:47;;;;;;;2.27;2.07;;;;;;;5.17;100.00;95502.69;5027888;28;20524;-60
2022/09/28 00:46:18;;;;;;;1.57;1.57;;;;;;;5.21;100.00;95490.81;5022437;28;20508;-62
2022/09/28 00:48:52;;;;;;;1.87;1.77;;;;;;;5.20;100.00;95483.09;5030504;28;20258;-61
2022/09/28 00:51:21;;;;;;;1.83;1.73;;;;;;;5.20;100.00;95481.31;4963999;28;20786;-57
2022/09/28 00:53:51;;;;;;;1.67;1.57;;;;;;;5.14;100.00;95482.06;5029652;28;20212;-64
2022/09/28 00:56:20;;;;;;;1.70;1.60;;;;;;;5.13;100.00;95493.59;4984173;28;20258;-59
2022/09/28 00:58:52;;;;;;;1.97;1.87;;;;;;;5.14;100.00;95483.88;5028020;28;20227;-64
2022/09/28 01:01:20;;;;;;;1.47;1.43;;;;;;;5.19;100.00;95474.44;5022081;28;20211;-63
2022/09/28 01:03:50;;;;;;;2.50;1.60;;;;;;;5.30;100.00;95474.88;5022348;28;20199;-61
2022/09/28 01:06:20;;;;;;;2.10;1.80;;;;;;;5.27;100.00;95470.81;4965615;28;20868;-59
2022/09/28 01:08:50;;;;;;;2.00;1.90;;;;;;;5.31;100.00;95466.00;5024962;28;20231;-60
2022/09/28 01:11:19;;;;;;;2.47;1.70;;;;;;;5.23;100.00;95464.34;5005060;28;20602;-62
2022/09/28 01:13:49;;;;;;;2.33;1.73;;;;;;;5.27;100.00;95462.94;5003001;28;20219;-62
2022/09/28 01:16:23;;;;;;;1.43;1.43;;;;;;;5.32;100.00;95462.38;5019848;28;20223;-59
2022/09/28 01:18:59;;;;;;;1.60;1.50;;;;;;;5.38;100.00;95456.34;5027642;28;20622;-63
2022/09/28 01:21:27;;;;;;;2.27;1.30;;;;;;;5.34;100.00;95452.50;4972665;28;20804;-63
2022/09/28 01:24:11;;;;;;;1.80;1.70;;;;;;;5.36;100.00;95445.22;5024522;28;20277;-63
2022/09/28 01:27:07;;;;;;;1.73;1.63;;;;;;;5.49;100.00;95445.31;5010194;28;20321;-60
2022/09/28 01:29:45;;;;;;;1.80;1.70;;;;;;;5.46;100.00;95437.78;5006181;28;20752;-60
2022/09/28 01:32:23;;;;;;;2.53;1.93;;;;;;;5.50;100.00;95428.53;5020999;28;20299;-62
2022/09/28 01:34:57;;;;;;;2.20;2.07;;;;;;;5.54;100.00;95426.31;5027424;28;20605;-58
2022/09/28 01:37:42;;;;;;;2.07;1.90;;;;;;;5.55;100.00;95421.91;4976638;28;20216;-65
2022/09/28 01:40:12;;;;;;;4.80;2.40;;;;;;;5.59;100.00;95412.59;4961275;28;20307;-56
2022/09/28 01:42:44;;;;;;;2.30;2.10;;;;;;;5.59;100.00;95407.34;5000538;28;20241;-57
2022/09/28 01:45:17;;;;;;;2.90;2.70;;;;;;;5.52;100.00;95399.44;5032559;28;20302;-59
2022/09/28 01:47:46;;;;;;;2.97;2.37;;;;;;;5.50;100.00;95410.16;5030074;28;20230;-58
2022/09/28 01:50:16;;;;;;;2.33;2.23;;;;;;;5.45;100.00;95403.84;5010981;28;20233;-65
2022/09/28 01:52:49;;;;;;;2.37;2.10;;;;;;;5.49;100.00;95403.28;5027573;28;20208;-63
2022/09/28 01:55:21;;;;;;;2.43;2.23;;;;;;;5.48;100.00;95404.25;4968798;28;20242;-61
2022/09/28 01:57:53;;;;;;;2.20;1.90;;;;;;;5.47;100.00;95397.38;5024568;28;20766;-62
2022/09/28 02:00:22;;;;;;;2.10;2.00;;;;;;;5.56;100.00;95407.75;5029539;28;20727;-61
2022/09/28 02:02:54;;;;;;;2.63;2.13;;;;;;;5.52;100.00;95398.66;5031582;28;20204;-61
2022/09/28 02:05:26;;;;;;;2.10;2.00;;;;;;;5.57;100.00;95398.88;5009318;28;20699;-61
2022/09/28 02:07:58;;;;;;;2.40;2.23;;;;;;;5.56;100.00;95394.63;5030924;28;20340;-63
2022/09/28 02:10:30;;;;;;;2.07;1.97;;;;;;;5.55;100.00;95385.91;4977886;28;20228;-57
2022/09/28 02:13:01;;;;;;;2.27;2.07;;;;;;;5.60;100.00;95385.34;5022051;28;20538;-59
2022/09/28 02:15:35;;;;;;;2.17;2.07;;;;;;;5.56;100.00;95373.59;5030485;28;20318;-60
2022/09/28 02:18:04;;;;;;;2.83;2.37;;;;;;;5.57;100.00;95369.97;5029323;28;20679;-53
2022/09/28 02:20:32;;;;;;;6.07;2.60;;;;;;;5.59;100.00;95358.22;5009628;28;20261;-59
2022/09/28 02:23:02;;;;;;;2.77;2.67;;;;;;;5.70;100.00;95348.19;5026437;28;20349;-58
2022/09/28 02:25:35;;;;;;;3.43;2.70;;;;;;;5.64;100.00;95334.78;4973230;28;20236;-61
2022/09/28 02:28:06;;;;;;;3.30;2.97;;;;;;;5.55;100.00;95329.94;5030007;28;20551;-60
2022/09/28 02:30:36;;;;;;;2.97;2.77;;;;;;;5.65;100.00;95330.38;5022939;28;20584;-61
2022/09/28 02:33:09;;;;;;;3.50;3.20;;;;;;;5.56;100.00;95316.59;5030092;28;20302;-57
2022/09/28 02:35:38;;;;;;;2.93;2.73;;;;;;;5.49;100.00;95319.22;5009564;28;20250;-64
2022/09/28 02:38:06;;;;;;;3.57;2.80;;;;;;;5.58;100.00;95319.03;5028373;28;20211;-64
2022/09/28 02:40:37;;;;;;;2.90;2.70;;;;;;;5.46;100.00;95301.22;4986237;28;20246;-63
2022/09/28 02:43:14;;;;;;;2.90;2.80;;;;;;;5.53;100.00;95310.94;5029569;28;20216;-58
2022/09/28 02:45:51;;;;;;;4.43;2.90;;;;;;;5.58;100.00;95308.53;5027677;28;20513;-59
2022/09/28 02:48:38;;;;;;;3.07;2.87;;;;;;;5.55;100.00;95303.66;5027311;28;20289;-62
2022/09/28 02:51:19;;;;;;;3.40;3.20;;;;;;;5.63;100.00;95298.22;5032116;28;20229;-55
2022/09/28 02:54:15;;;;;;;6.00;3.03;;;;;;;5.59;100.00;95291.75;5000643;28;21224;-61
2022/09/28 02:56:58;;;;;;;3.10;2.90;;;;;;;5.66;100.00;95287.31;4972625;28;20634;-61
2022/09/28 02:59:37;;;;;;;4.07;3.60;;;;;;;5.69;100.00;95286.13;5024805;28;20716;-59
2022/09/28 03:02:11;;;;;;;5.00;3.37;;;;;;;5.66;100.00;95282.06;5027964;28;20706;-59
2022/09/28 03:04:44;;;;;;;2.80;2.70;;;;;;;5.72;100.00;95280.47;5027022;28;20214;-59
2022/09/28 03:07:17;;;;;;;3.40;3.20;;;;;;;5.65;100.00;95277.81;5008213;28;20298;-59
2022/09/28 03:09:53;;;;;;;3.30;3.10;;;;;;;5.74;100.00;95273.97;5022717;28;20311;-60
2022/09/28 03:12:23;;;;;;;3.67;2.80;;;;;;;5.76;100.00;95271.16;4938609;28;20782;-57
2022/09/28 03:15:09;;;;;;;4.10;3.20;;;;;;;5.73;100.00;95272.38;5025314;28;20255;-62
2022/09/28 03:17:37;;;;;;;2.80;2.60;;;;;;;5.75;100.00;95264.28;5028781;28;20205;-61
2022/09/28 03:20:06;;;;;;;3.13;2.93;;;;;;;5.77;100.00;95263.06;5027445;28;20556;-58
2022/09/28 03:22:35;;;;;;;3.30;3.10;;;;;;;5.74;100.00;95266.09;5007224;28;20637;-55
2022/09/28 03:25:03;;;;;;;3.47;3.27;;;;;;;5.74;100.00;95257.41;5027240;28;20227;-58
2022/09/28 03:27:32;;;;;;;3.63;3.43;;;;;;;5.71;100.00;95249.94;4971982;28;20826;-62
2022/09/28 03:30:00;;;;;;;3.73;3.30;;;;;;;5.68;100.00;95245.06;5019104;28;20222;-61
2022/09/28 03:32:30;;;;;;;3.60;3.30;;;;;;;5.67;100.00;95252.16;5025119;28;20263;-60
2022/09/28 03:34:58;;;;;;;3.50;3.30;;;;;;;5.70;100.00;95219.41;5019093;28;20227;-61
2022/09/28 03:37:26;;;;;;;3.07;2.97;;;;;;;5.78;100.00;95227.91;5025969;28;20545;-61
2022/09/28 03:39:54;;;;;;;3.20;3.10;;;;;;;5.76;100.00;95222.03;5004428;28;20211;-60
2022/09/28 03:42:22;;;;;;;3.50;3.33;;;;;;;5.72;100.00;95218.19;5028432;28;20278;-63
2022/09/28 03:44:50;;;;;;;3.10;2.90;;;;;;;5.79;100.00;95223.47;4972463;28;20599;-61
2022/09/28 03:47:20;;;;;;;3.00;2.90;;;;;;;5.78;100.00;95217.38;4966424;28;20470;-64
2022/09/28 03:49:49;;;;;;;2.77;2.67;;;;;;;5.72;100.00;95202.44;5025698;28;20238;-63
2022/09/28 03:52:18;;;;;;;3.07;2.87;;;;;;;5.75;100.00;95195.97;5005755;28;20204;-62
2022/09/28 03:54:46;;;;;;;2.87;2.63;;;;;;;5.75;100.00;95193.34;5024313;28;20767;-63
2022/09/28 03:57:16;;;;;;;3.37;3.13;;;;;;;5.75;100.00;95188.88;5023571;28;20215;-62
2022/09/28 03:59:44;;;;;;;3.13;3.03;;;;;;;5.79;100.00;95186.66;5004064;28;20302;-63
2022/09/28 04:02:12;;;;;;;3.00;2.80;;;;;;;5.76;100.00;95179.19;4969830;28;20243;-62
2022/09/28 04:04:40;;;;;;;2.90;2.70;;;;;;;5.79;100.00;95173.53;5022791;28;20203;-64
2022/09/28 04:07:10;;;;;;;2.90;2.80;;;;;;;5.83;100.00;95173.91;5027105;28;20299;-62
2022/09/28 04:09:38;;;;;;;2.80;2.70;;;;;;;5.84;100.00;95165.00;5023216;28;21106;-61
2022/09/28 04:12:06;;;;;;;2.87;2.77;;;;;;;5.83;100.00;95152.88;5025874;28;20210;-59
2022/09/28 04:14:34;;;;;;;2.63;2.53;;;;;;;5.84;100.00;95134.31;5006811;28;20200;-61
2022/09/28 04:17:03;;;;;;;2.90;2.70;;;;;;;5.81;100.00;95129.44;5023039;28;20200;-61
2022/09/28 04:19:31;;;;;;;2.90;2.70;;;;;;;5.83;100.00;95123.97;4962850;28;20208;-60
2022/09/28 04:22:00;;;;;;;2.63;2.53;;;;;;;5.78;100.00;95114.09;5023234;28;20357;-64
2022/09/28 04:24:29;;;;;;;3.03;2.77;;;;;;;5.89;100.00;95118.72;5022883;28;20215;-60
2022/09/28 04:29:14;;;;;;;2.70;2.50;;;;;;;5.85;100.00;95122.78;5011343;28;20215;-60
2022/09/28 04:29:45;;;;;;;2.83;2.73;;;;;;;5.86;100.00;95118.31;5009767;28;20204;-59
2022/09/28 04:32:13;;;;;;;2.77;2.60;;;;;;;5.89;100.00;95113.47;5024802;28;20220;-63
2022/09/28 04:34:41;;;;;;;2.77;2.67;;;;;;;5.94;100.00;95112.84;4985574;28;20212;-62
2022/09/28 04:37:11;;;;;;;2.80;2.60;;;;;;;5.95;100.00;95109.22;5022074;28;20207;-59
2022/09/28 04:39:40;;;;;;;3.00;2.80;;;;;;;5.98;100.00;95114.06;5025962;28;20208;-63
2022/09/28 04:42:15;;;;;;;3.97;3.67;;;;;;;6.06;100.00;95108.59;5004736;28;20947;-63
2022/09/28 04:44:43;;;;;;;3.30;3.10;;;;;;;6.07;100.00;95099.69;5007260;28;20235;-58
2022/09/28 04:47:11;;;;;;;3.07;2.97;;;;;;;6.11;100.00;95096.66;5023483;28;20208;-60
2022/09/28 04:49:39;;;;;;;3.40;3.20;;;;;;;6.09;100.00;95104.75;4983820;28;20262;-62
2022/09/28 04:52:08;;;;;;;3.07;2.87;;;;;;;6.11;100.00;95099.28;5020264;28;20397;-63
2022/09/28 04:54:36;;;;;;;3.00;2.90;;;;;;;6.11;100.00;95092.22;5024417;28;20199;-60
2022/09/28 04:57:05;;;;;;;3.43;2.50;;;;;;;6.15;100.00;95071.56;5008529;28;20438;-62
2022/09/28 04:59:35;;;;;;;3.40;3.20;;;;;;;6.16;100.00;95081.06;5025023;28;20204;-63
2022/09/28 05:02:03;;;;;;;3.10;2.80;;;;;;;6.16;100.00;95079.25;5007084;28;21009;-61
2022/09/28 05:04:31;;;;;;;3.73;3.23;;;;;;;6.22;100.00;95083.69;4978735;28;20908;-53
2022/09/28 05:06:59;;;;;;;3.20;3.00;;;;;;;6.19;100.00;95078.84;5021643;28;20230;-61
2022/09/28 05:09:27;;;;;;;3.43;3.13;;;;;;;6.25;100.00;95074.56;5023693;28;20988;-56
2022/09/28 05:11:55;;;;;;;3.67;3.37;;;;;;;6.17;100.00;95064.25;5024811;28;20224;-60
2022/09/28 05:14:25;;;;;;;3.37;3.20;;;;;;;6.26;100.00;95072.75;5015011;28;20711;-57
2022/09/28 05:16:53;;;;;;;3.73;3.53;;;;;;;6.27;100.00;95072.53;5012162;28;20211;-61
2022/09/28 05:19:21;;;;;;;3.20;2.97;;;;;;;6.36;100.00;95067.84;5026679;28;20500;-54
2022/09/28 05:21:50;;;;;;;3.20;3.00;;;;;;;6.31;100.00;95065.03;4979911;28;20207;-58
2022/09/28 05:24:18;;;;;;;4.17;3.97;;;;;;;6.37;100.00;95056.28;5026913;28;20482;-58
2022/09/28 05:26:46;;;;;;;3.17;2.97;;;;;;;6.40;100.00;95063.75;5028288;28;20237;-61
2022/09/28 05:29:14;;;;;;;3.50;3.20;;;;;;;6.44;100.00;95057.09;5022102;28;20497;-55
2022/09/28 05:31:43;;;;;;;3.60;3.40;;;;;;;6.43;100.00;95054.66;5030839;28;20353;-58
2022/09/28 05:34:12;;;;;;;3.37;3.17;;;;;;;6.57;100.00;95053.56;5009362;28;20730;-61
2022/09/28 05:36:41;;;;;;;4.23;3.83;;;;;;;6.58;100.00;95062.28;4979755;28;20232;-58
2022/09/28 05:39:09;;;;;;;3.20;3.00;;;;;;;6.59;100.00;95048.09;5023304;28;20207;-61
2022/09/28 05:41:37;;;;;;;3.87;3.40;;;;;;;6.66;100.00;95047.03;5029216;28;20249;-55
2022/09/28 05:44:06;;;;;;;3.87;3.60;;;;;;;6.77;100.00;95044.75;5026963;28;20303;-61
2022/09/28 05:46:34;;;;;;;3.40;3.20;;;;;;;6.97;100.00;95041.16;5030009;28;20235;-61
2022/09/28 05:49:03;;;;;;;3.77;3.57;;;;;;;7.03;100.00;95040.31;5007452;28;20432;-58
2022/09/28 05:51:31;;;;;;;3.43;3.23;;;;;;;7.11;100.00;95042.69;4977859;28;20216;-57
2022/09/28 05:54:00;;;;;;;3.50;3.30;;;;;;;7.13;100.00;95040.66;4967314;28;20207;-51
2022/09/28 05:56:33;;;;;;;3.50;3.20;;;;;;;7.03;100.00;95035.06;5021717;28;20318;-61
2022/09/28 05:59:04;;;;;;;3.60;3.30;;;;;;;7.01;100.00;95030.00;5029554;28;20610;-58
2022/09/28 06:01:32;;;;;;;4.93;3.17;;;;;;;6.99;100.00;95036.47;5012209;28;20614;-62
2022/09/28 06:04:01;;;;;;;4.33;3.77;;;;;;;7.03;100.00;95042.97;5029151;28;20216;-57
2022/09/28 06:06:30;;;;;;;3.90;3.57;;;;;;;7.02;100.00;95043.97;5013297;28;20318;-63
2022/09/28 06:08:58;;;;;;;2.53;2.43;;;;;;;7.06;100.00;95042.53;4979866;28;20254;-59
2022/09/28 06:11:26;;;;;;;3.30;3.07;;;;;;;7.16;100.00;95044.66;5025956;28;20233;-60
2022/09/28 06:13:55;;;;;;;3.17;2.97;;;;;;;7.22;100.00;95049.88;5031373;28;20231;-58
2022/09/28 06:16:24;;;;;;;3.57;3.27;;;;;;;7.07;100.00;95030.97;5029831;28;20315;-59
2022/09/28 06:18:52;;;;;;;3.47;3.23;;;;;;;7.12;100.00;95046.94;5027358;28;20503;-61
2022/09/28 06:21:20;;;;;;;3.10;2.90;;;;;;;7.10;100.00;95038.44;5024664;28;20238;-63
2022/09/28 06:23:50;;;;;;;3.00;2.80;;;;;;;7.12;100.00;95039.03;5016200;28;20235;-62
2022/09/28 06:26:19;;;;;;;3.10;2.90;;;;;;;7.14;100.00;95036.16;4979465;28;20242;-61
2022/09/28 06:28:47;;;;;;;3.17;2.93;;;;;;;7.22;100.00;95039.34;5026146;28;20416;-59
2022/09/28 06:31:15;;;;;;;2.80;2.70;;;;;;;7.15;100.00;95028.06;5032619;28;20303;-60
2022/09/28 06:33:43;;;;;;;3.13;2.93;;;;;;;7.29;100.00;95039.31;5028723;28;20835;-60
2022/09/28 06:36:12;;;;;;;2.77;2.67;;;;;;;7.43;100.00;95037.34;5029335;28;20259;-58
2022/09/28 06:38:40;;;;;;;3.57;3.27;;;;;;;7.50;100.00;95043.38;5007193;28;20411;-57
2022/09/28 06:41:11;;;;;;;3.57;2.80;;;;;;;7.55;100.00;95042.69;4985318;28;20224;-59
2022/09/28 06:43:39;;;;;;;2.80;2.63;;;;;;;7.62;100.00;95038.19;5020878;28;20285;-61
2022/09/28 06:46:09;;;;;;;2.67;2.53;;;;;;;7.59;100.00;95040.44;5028790;28;20972;-62
2022/09/28 06:48:37;;;;;;;2.70;2.60;;;;;;;7.66;100.00;95041.19;5022585;28;20492;-62
2022/09/28 06:51:05;;;;;;;2.80;2.20;;;;;;;7.76;100.00;95044.09;5028014;28;20212;-61
2022/09/28 06:53:34;;;;;;;2.53;2.33;;;;;;;7.81;100.00;95040.81;5006668;28;20204;-59
2022/09/28 06:56:03;;;;;;;2.47;2.27;;;;;;;7.87;100.00;95050.50;4974466;28;20233;-64
2022/09/28 06:58:33;;;;;;;2.70;2.30;;;;;;;7.91;100.00;95045.59;5024100;28;20217;-62
2022/09/28 07:01:01;;;;;;;3.10;1.80;;;;;;;7.90;100.00;95055.31;5028792;28;20310;-59
2022/09/28 07:03:29;;;;;;;1.77;1.67;;;;;;;7.92;100.00;95050.63;5025681;28;20211;-62
2022/09/28 07:05:57;;;;;;;2.40;2.30;;;;;;;7.92;100.00;95049.84;5027657;28;20227;-61
2022/09/28 07:08:27;;;;;;;1.80;1.70;;;;;;;7.87;100.00;95060.25;5017535;28;20327;-64
2022/09/28 07:10:56;;;;;;;2.10;2.00;;;;;;;7.81;100.00;95065.38;4977075;28;20218;-62
2022/09/28 07:13:26;;;;;;;4.27;2.23;;;;;;;7.80;100.00;95050.59;5023452;28;20230;-64
2022/09/28 07:16:16;;;;;;;3.97;2.23;;;;;;;7.86;100.00;95066.53;5026875;28;20903;-58
2022/09/28 07:18:48;;;;;;;2.97;2.40;;;;;;;7.74;100.00;95051.44;5028480;28;20859;-62
2022/09/28 07:21:17;;;;;;;2.87;2.67;;;;;;;7.68;100.00;95049.66;5025319;28;20292;-62
2022/09/28 07:23:56;;;;;;;5.30;2.50;;;;;;;7.67;100.00;95067.34;5024335;28;20204;-61
2022/09/28 07:26:24;;;;;;;2.40;2.20;;;;;;;7.70;100.00;95062.66;4963113;28;20232;-63
2022/09/28 07:28:54;;;;;;;3.37;2.30;;;;;;;7.70;100.00;95076.63;5024723;28;20421;-61
2022/09/28 07:31:25;;;;;;;2.87;2.10;;;;;;;7.74;100.00;95079.63;5027105;28;20199;-62
2022/09/28 07:33:54;;;;;;;2.33;2.17;;;;;;;7.77;100.00;95081.84;5027179;28;20795;-63
2022/09/28 07:36:22;;;;;;;1.90;1.80;;;;;;;7.86;100.00;95093.69;5026550;28;20243;-60
2022/09/28 07:38:50;;;;;;;3.00;1.93;;;;;;;7.85;100.00;95086.03;5025643;28;20198;-63
2022/09/28 07:41:25;;;;;;;2.33;2.13;;;;;;;7.73;100.00;95086.72;4996839;28;20296;-64
2022/09/28 07:43:54;;;;;;;1.87;1.77;;;;;;;7.78;100.00;95100.09;5017208;28;20196;-61
2022/09/28 07:46:23;;;;;;;2.33;2.20;;;;;;;7.88;100.00;95090.88;5028198;28;20632;-59
2022/09/28 07:48:52;;;;;;;2.20;2.00;;;;;;;7.93;100.00;95104.97;5027638;28;20342;-59
2022/09/28 07:51:21;;;;;;;2.90;2.57;;;;;;;8.04;100.00;95108.72;5024435;28;20246;-59
2022/09/28 07:53:49;;;;;;;3.00;2.17;;;;;;;8.11;100.00;95116.59;5028946;28;20560;-63
2022/09/28 07:56:19;;;;;;;2.70;2.50;;;;;;;8.10;100.00;95115.75;5005761;28;20232;-62
2022/09/28 07:58:47;;;;;;;2.30;2.10;;;;;;;8.17;100.00;95115.72;4979086;28;20539;-60
2022/09/28 08:01:17;;;;;;;2.60;2.50;;;;;;;8.38;100.00;95125.00;4962425;28;20216;-62
2022/09/28 08:03:47;;;;;;;12.33;5.00;;;;;;;8.51;100.00;95121.44;5004136;28;20219;-57
2022/09/28 08:06:17;;;;;;;27.10;5.47;;;;;;;8.77;100.00;95121.34;5028373;28;20228;-60
2022/09/28 08:08:45;;;;;;;3.17;2.53;;;;;;;9.17;100.00;95126.06;5004252;28;20206;-62
2022/09/28 08:11:15;;;;;;;2.07;1.97;;;;;;;9.35;100.00;95113.81;5026900;28;20657;-62
2022/09/28 08:13:45;;;;;;;2.03;1.90;;;;;;;9.78;100.00;95135.69;5018708;28;20225;-61
2022/09/28 08:16:13;;;;;;;1.53;1.43;;;;;;;10.04;100.00;95129.16;4980857;28;20980;-62
2022/09/28 08:18:41;;;;;;;1.33;1.27;;;;;;;10.23;100.00;95121.91;5021254;28;20199;-63
2022/09/28 08:23:56;;;;;;;1.80;1.70;;;;;;;10.11;100.00;95116.63;5007036;28;20286;-61
2022/09/28 08:26:25;;;;;;;1.30;1.20;;;;;;;9.99;100.00;95116.63;5028453;28;20223;-62
2022/09/28 08:28:53;;;;;;;2.00;1.90;;;;;;;9.89;100.00;95129.63;5022739;28;20290;-61
2022/09/28 08:31:21;;;;;;;1.37;1.27;;;;;;;9.83;100.00;95134.00;5029344;28;20258;-59
2022/09/28 08:33:53;;;;;;;1.50;1.40;;;;;;;9.82;100.00;95144.78;4972833;28;20236;-58
2022/09/28 08:36:22;;;;;;;1.60;1.50;;;;;;;9.90;100.00;95154.22;5025425;28;20292;-59
2022/09/28 08:38:51;;;;;;;1.80;1.53;;;;;;;10.02;100.00;95151.59;5006639;28;20690;-62
2022/09/28 08:41:24;;;;;;;1.73;1.63;;;;;;;9.88;100.00;95143.88;5026010;28;20207;-63
2022/09/28 08:44:02;;;;;;;2.73;1.90;;;;;;;9.97;100.00;95142.50;5024056;28;20965;-60
2022/09/28 08:46:34;;;;;;;2.30;2.10;;;;;;;9.98;100.00;95140.66;5025296;28;20658;-61
2022/09/28 08:49:06;;;;;;;2.23;1.67;;;;;;;10.01;100.00;95139.41;4974865;28;20235;-62
2022/09/28 08:51:58;;;;;;;2.10;2.00;;;;;;;10.14;100.00;95136.50;5021876;28;20630;-56
2022/09/28 08:54:34;;;;;;;2.00;1.40;;;;;;;10.40;100.00;95139.72;5012396;28;20255;-61
2022/09/28 08:57:05;;;;;;;3.57;1.60;;;;;;;10.41;100.00;95151.94;5022636;28;20391;-59
2022/09/28 08:59:46;;;;;;;1.93;1.83;;;;;;;10.63;100.00;95162.72;5023652;28;20380;-62
2022/09/28 09:02:17;;;;;;;1.40;1.30;;;;;;;10.62;100.00;95161.09;5019938;28;20211;-60
2022/09/28 09:04:45;;;;;;;2.63;1.33;;;;;;;10.77;100.00;95163.25;4970360;28;20691;-61
2022/09/28 09:07:49;;;;;;;1.30;1.20;;;;;;;10.80;100.00;95168.06;5023286;28;20219;-61
2022/09/28 09:10:45;;;;;;;2.50;0.83;;;;;;;10.63;100.00;95157.41;5009339;28;20547;-59
2022/09/28 09:13:29;;;;;;;1.83;1.10;;;;;;;10.61;100.00;95153.41;5030259;28;20599;-61
2022/09/28 09:16:01;;;;;;;1.30;1.03;;;;;;;10.33;100.00;95168.94;5024297;28;20778;-63
2022/09/28 09:18:41;;;;;;;1.40;1.23;;;;;;;10.40;100.00;95172.28;5019936;28;20208;-64
2022/09/28 09:21:14;;;;;;;0.93;0.93;;;;;;;10.67;100.00;95171.78;5017688;28;20207;-65
2022/09/28 09:23:54;;;;;;;2.30;1.10;;;;;;;10.99;100.00;95179.31;5013083;28;20491;-62
2022/09/28 09:26:29;;;;;;;2.10;1.43;;;;;;;11.20;100.00;95179.69;5026062;28;20668;-59
2022/09/28 09:29:13;;;;;;;2.83;2.17;;;;;;;11.06;100.00;95183.66;5021226;28;20900;-60
2022/09/28 09:31:58;;;;;;;1.03;1.03;;;;;;;10.83;100.00;95190.66;5020871;28;20664;-62
2022/09/28 09:35:04;;;;;;;1.30;1.20;;;;;;;10.68;100.00;95185.84;5023197;28;20219;-64
2022/09/28 09:37:52;;;;;;;0.90;0.90;;;;;;;10.59;100.00;95182.75;5020716;28;20243;-58
2022/09/28 09:40:36;;;;;;;1.03;1.03;;;;;;;10.26;100.00;95200.84;5012435;28;20288;-59
2022/09/28 09:43:14;;;;;;;1.60;1.50;;;;;;;10.35;100.00;95195.19;5025962;28;20374;-63
2022/09/28 09:45:53;;;;;;;1.77;1.53;;;;;;;10.40;100.00;95190.81;5022731;28;20224;-61
2022/09/28 09:48:25;;;;;;;1.23;1.13;;;;;;;10.47;100.00;95184.63;5021717;28;20789;-57
2022/09/28 09:50:57;;;;;;;1.70;1.03;;;;;;;10.83;100.00;95190.66;4977574;28;20211;-61
2022/09/28 09:53:27;;;;;;;1.10;0.97;;;;;;;11.30;100.00;95187.00;5026934;28;20229;-61
2022/09/28 09:56:02;;;;;;;1.23;1.00;;;;;;;11.71;100.00;95184.28;5009191;28;20224;-61
2022/09/28 09:58:34;;;;;;;0.90;0.90;;;;;;;12.44;100.00;95187.00;5023308;28;20294;-63
2022/09/28 10:01:08;;;;;;;0.90;0.90;;;;;;;12.97;99.35;95175.94;5025182;28;20674;-63
2022/09/28 10:03:40;;;;;;;0.97;0.97;;;;;;;13.86;93.39;95178.44;5029010;28;20207;-61
2022/09/28 10:06:11;;;;;;;0.80;0.80;;;;;;;13.67;83.97;95182.53;4979621;28;20223;-59
2022/09/28 10:08:43;;;;;;;1.27;1.23;;;;;;;13.60;86.86;95183.53;4970472;28;20323;-62
2022/09/28 10:11:15;;;;;;;2.37;0.80;;;;;;;13.49;82.25;95179.19;5025765;28;20211;-61
2022/09/28 10:13:44;;;;;;;0.87;0.87;;;;;;;12.67;82.50;95177.19;5027199;28;20224;-60
2022/09/28 10:16:12;;;;;;;1.13;0.87;;;;;;;12.25;85.65;95183.00;5006439;28;20245;-60
2022/09/28 10:18:41;;;;;;;2.07;0.90;;;;;;;12.44;87.28;95183.53;5031017;28;20627;-61
2022/09/28 10:21:13;;;;;;;1.03;1.03;;;;;;;12.31;88.43;95179.34;5026381;28;20464;-61
2022/09/28 10:23:41;;;;;;;0.73;0.73;;;;;;;12.16;89.12;95174.66;4963273;28;20294;-59
2022/09/28 10:26:14;;;;;;;1.30;0.87;;;;;;;11.51;86.29;95185.53;5024278;28;20238;-61
2022/09/28 10:28:48;;;;;;;1.30;1.20;;;;;;;11.03;90.45;95182.31;5028854;28;20216;-62
2022/09/28 10:31:37;;;;;;;11.03;9.27;;;;;;;11.14;91.74;95189.41;5026710;28;20890;-59
2022/09/28 10:34:06;;;;;;;1.83;1.40;;;;;;;11.26;90.12;95191.19;5027194;28;20228;-62
2022/09/28 10:36:46;;;;;;;1.10;1.10;;;;;;;11.71;86.88;95184.28;5026798;28;20227;-64
2022/09/28 10:39:30;;;;;;;1.00;1.00;;;;;;;12.37;84.67;95191.69;4960874;28;20735;-58
2022/09/28 10:42:03;;;;;;;2.93;1.30;;;;;;;12.57;82.63;95198.31;5022744;28;20207;-61
2022/09/28 10:44:33;;;;;;;1.53;1.20;;;;;;;12.76;78.96;95192.72;5028643;28;20216;-61
2022/09/28 10:47:04;;;;;;;1.40;1.10;;;;;;;13.42;75.97;95192.69;5025032;28;20371;-63
2022/09/28 10:49:39;;;;;;;0.90;0.90;;;;;;;13.79;73.92;95198.34;5026710;28;20232;-62
2022/09/28 10:52:31;;;;;;;1.10;1.10;;;;;;;14.21;70.27;95202.13;5023227;28;20355;-63
2022/09/28 10:55:00;;;;;;;1.73;1.17;;;;;;;14.14;68.93;95205.00;4959403;28;20323;-60
2022/09/28 10:57:35;;;;;;;0.93;0.93;;;;;;;13.84;69.62;95203.69;5027368;28;20750;-64
2022/09/28 11:00:05;;;;;;;1.37;1.07;;;;;;;14.37;68.62;95206.50;5027262;28;20296;-62
2022/09/28 11:02:35;;;;;;;1.90;1.07;;;;;;;14.29;68.79;95205.09;5030573;28;20582;-60
2022/09/28 11:05:05;;;;;;;1.90;1.30;;;;;;;13.87;67.71;95205.84;5026784;28;20835;-63
2022/09/28 11:07:44;;;;;;;0.97;0.97;;;;;;;13.48;66.82;95206.03;5026557;28;20253;-57
2022/09/28 11:10:20;;;;;;;1.10;1.10;;;;;;;12.42;70.74;95217.50;4966641;28;20925;-61
2022/09/28 11:12:51;;;;;;;1.97;1.43;;;;;;;11.58;74.88;95207.41;5023184;28;20602;-60
2022/09/28 11:15:20;;;;;;;1.00;1.00;;;;;;;10.65;78.79;95226.84;5027249;28;20240;-57
2022/09/28 11:17:49;;;;;;;2.17;1.50;;;;;;;10.34;83.80;95212.09;5023974;28;20208;-60
2022/09/28 11:20:30;;;;;;;1.67;1.40;;;;;;;10.35;87.66;95217.16;5028512;28;20204;-60
2022/09/28 11:22:59;;;;;;;1.73;1.63;;;;;;;9.88;90.74;95219.78;5021345;28;20207;-62
2022/09/28 11:25:29;;;;;;;1.40;1.37;;;;;;;9.54;100.00;95229.00;5009806;28;20642;-61
2022/09/28 11:28:00;;;;;;;2.20;1.77;;;;;;;9.32;100.00;95223.44;4975082;28;20569;-62
2022/09/28 11:30:31;;;;;;;1.40;1.30;;;;;;;9.25;100.00;95220.88;5029431;28;20635;-62
2022/09/28 11:33:04;;;;;;;1.73;1.60;;;;;;;9.06;100.00;95229.88;5027242;28;20281;-57
2022/09/28 11:35:42;;;;;;;2.20;2.00;;;;;;;9.02;100.00;95233.97;5028955;28;20281;-61
2022/09/28 11:38:21;;;;;;;3.43;2.40;;;;;;;9.25;100.00;95230.66;5026502;28;20324;-58
2022/09/28 11:40:57;;;;;;;5.23;3.90;;;;;;;9.22;100.00;95216.03;4983504;28;20249;-65
2022/09/28 11:43:48;;;;;;;3.10;2.90;;;;;;;9.45;100.00;95235.66;5021359;28;20219;-62
2022/09/28 11:46:25;;;;;;;2.07;1.97;;;;;;;9.37;100.00;95228.06;5027329;28;20449;-62
2022/09/28 11:48:56;;;;;;;2.47;2.27;;;;;;;9.61;100.00;95236.03;5027945;28;20249;-63
2022/09/28 11:51:27;;;;;;;2.97;2.80;;;;;;;9.84;100.00;95236.09;5029342;28;20207;-64
2022/09/28 11:53:58;;;;;;;3.00;2.80;;;;;;;10.21;100.00;95237.75;5025272;28;20212;-64
2022/09/28 11:56:33;;;;;;;2.90;2.70;;;;;;;10.49;100.00;95233.63;5010990;28;20761;-59
2022/09/28 11:59:08;;;;;;;3.70;2.50;;;;;;;10.34;99.71;95231.44;4973090;28;20436;-64